Time;durP1;ratioP1;P1;durP2;ratioP2;P2;SDS_P1;SDS_P2;PMS_P1;PMS_P2;Temp;Humidity;BMP_temperature;BMP_pressure;BME280_temperature;BME280_humidity;BME280_pressure;Samples;Min_cycle;Max_cycle;Signal;HPM_P1;HPM_P2
2020/12/23 00:00:11;;;;;;;1.58;0.50;;;14.00;86.90;;;;;;5052611;28;20083;-74
2020/12/23 00:02:37;;;;;;;0.95;0.68;;;14.00;86.50;;;;;;5034077;28;20029;-74
2020/12/23 00:05:06;;;;;;;1.75;0.57;;;14.10;86.20;;;;;;5034771;28;20107;-74
2020/12/23 00:07:32;;;;;;;1.05;0.60;;;14.10;86.00;;;;;;5034175;28;20036;-74
2020/12/23 00:09:57;;;;;;;0.65;0.45;;;14.10;86.30;;;;;;5052537;28;20029;-74
2020/12/23 00:12:23;;;;;;;0.70;0.50;;;14.10;86.00;;;;;;5052247;28;20348;-74
2020/12/23 00:14:48;;;;;;;1.08;0.50;;;14.00;85.90;;;;;;5034670;28;20025;-74
2020/12/23 00:17:18;;;;;;;1.05;0.50;;;14.10;86.10;;;;;;5034734;28;20021;-74
2020/12/23 00:19:44;;;;;;;0.98;0.50;;;14.00;86.10;;;;;;5033927;28;20036;-75
2020/12/23 00:22:09;;;;;;;1.73;0.93;;;14.10;86.20;;;;;;5052633;28;20025;-75
2020/12/23 00:24:35;;;;;;;1.25;0.60;;;14.10;86.10;;;;;;5035028;28;20029;-75
2020/12/23 00:27:01;;;;;;;0.60;0.52;;;14.00;85.60;;;;;;5038623;28;20513;-75
2020/12/23 00:29:26;;;;;;;1.75;0.60;;;14.10;86.30;;;;;;5038066;28;20040;-74
2020/12/23 00:31:53;;;;;;;0.70;0.50;;;14.10;85.60;;;;;;5038588;28;20028;-74
2020/12/23 00:34:19;;;;;;;0.95;0.50;;;14.10;85.50;;;;;;5038614;28;20029;-74
2020/12/23 00:36:50;;;;;;;0.82;0.60;;;14.10;85.70;;;;;;5056013;28;20373;-75
2020/12/23 00:39:16;;;;;;;2.30;0.60;;;14.10;85.50;;;;;;5038532;28;20387;-74
2020/12/23 00:41:44;;;;;;;1.08;0.70;;;14.00;85.40;;;;;;5037872;28;20266;-74
2020/12/23 00:44:09;;;;;;;1.52;0.60;;;14.00;85.70;;;;;;5038311;28;20057;-74
2020/12/23 00:46:35;;;;;;;2.30;0.60;;;14.00;85.60;;;;;;5037770;28;20052;-74
2020/12/23 00:49:02;;;;;;;0.98;0.57;;;14.00;85.60;;;;;;5038397;28;20115;-74
2020/12/23 00:51:28;;;;;;;1.52;0.77;;;14.00;85.80;;;;;;5037500;28;20052;-74
2020/12/23 00:53:53;;;;;;;1.30;0.68;;;14.00;85.30;;;;;;5055787;28;20029;-74
2020/12/23 00:56:19;;;;;;;2.22;0.57;;;14.00;85.20;;;;;;5056411;28;20424;-74
2020/12/23 00:58:45;;;;;;;0.90;0.65;;;14.00;85.40;;;;;;5055381;28;20355;-74
2020/12/23 01:01:13;;;;;;;0.80;0.60;;;14.00;85.70;;;;;;5038019;28;20079;-74
2020/12/23 01:03:38;;;;;;;1.10;0.88;;;14.00;86.00;;;;;;5037374;28;20489;-74
2020/12/23 01:06:08;;;;;;;1.55;0.45;;;13.90;86.00;;;;;;5037718;28;20029;-74
2020/12/23 01:08:34;;;;;;;2.60;0.77;;;13.90;85.70;;;;;;5054906;28;20060;-74
2020/12/23 01:10:59;;;;;;;1.42;0.80;;;13.90;85.60;;;;;;5037828;28;20470;-74
2020/12/23 01:13:25;;;;;;;1.45;0.68;;;13.90;85.50;;;;;;5037339;28;20093;-74
2020/12/23 01:15:51;;;;;;;2.08;0.40;;;13.90;85.50;;;;;;5055779;28;20025;-74
2020/12/23 01:18:16;;;;;;;1.45;0.47;;;13.90;85.10;;;;;;5055439;28;20029;-74
2020/12/23 01:20:42;;;;;;;1.27;0.45;;;14.00;85.50;;;;;;5037087;28;20470;-74
2020/12/23 01:23:08;;;;;;;0.90;0.50;;;13.90;86.00;;;;;;5055251;28;20032;-74
2020/12/23 01:25:33;;;;;;;2.65;0.50;;;13.90;85.50;;;;;;5036754;28;20033;-74
2020/12/23 01:27:59;;;;;;;1.20;0.70;;;13.90;85.60;;;;;;5037587;28;20478;-74
2020/12/23 01:30:24;;;;;;;2.22;0.65;;;13.90;85.60;;;;;;5054904;28;20104;-73
2020/12/23 01:32:50;;;;;;;1.05;0.65;;;13.90;85.80;;;;;;5055429;28;20033;-74
2020/12/23 01:35:16;;;;;;;0.60;0.40;;;13.90;85.80;;;;;;5037591;28;20489;-74
2020/12/23 01:37:42;;;;;;;0.85;0.57;;;13.90;85.50;;;;;;5035467;28;20052;-74
2020/12/23 01:40:08;;;;;;;2.90;1.08;;;13.90;85.90;;;;;;5055122;28;20029;-74
2020/12/23 01:42:34;;;;;;;1.05;0.40;;;13.90;85.80;;;;;;5054586;28;20080;-74
2020/12/23 01:45:01;;;;;;;1.08;0.60;;;13.90;86.00;;;;;;5037299;28;20470;-74
2020/12/23 01:47:28;;;;;;;2.15;0.63;;;13.90;86.20;;;;;;5054423;28;20079;-73
2020/12/23 01:49:54;;;;;;;2.13;0.70;;;13.80;86.60;;;;;;5036921;28;20036;-74
2020/12/23 01:52:22;;;;;;;1.38;0.60;;;13.80;87.10;;;;;;5037249;28;20056;-74
2020/12/23 01:54:49;;;;;;;1.20;0.60;;;13.70;87.10;;;;;;5036355;28;20381;-74
2020/12/23 01:57:14;;;;;;;0.82;0.55;;;13.70;87.30;;;;;;5054474;28;20047;-75
2020/12/23 01:59:47;;;;;;;1.00;0.45;;;13.70;87.20;;;;;;5054216;28;20518;-74
2020/12/23 02:02:31;;;;;;;0.80;0.50;;;13.70;87.50;;;;;;5036925;28;20531;-74
2020/12/23 02:04:59;;;;;;;0.70;0.50;;;13.70;87.80;;;;;;5037220;28;20135;-75
2020/12/23 02:07:25;;;;;;;0.50;0.40;;;13.70;88.00;;;;;;5036939;28;20060;-75
2020/12/23 02:09:53;;;;;;;1.33;0.55;;;13.60;88.30;;;;;;5036328;28;20029;-75
2020/12/23 02:12:20;;;;;;;1.30;0.55;;;13.60;88.40;;;;;;5054615;28;20032;-75
2020/12/23 02:14:46;;;;;;;0.80;0.50;;;13.60;89.10;;;;;;5053895;28;20112;-74
2020/12/23 02:17:12;;;;;;;0.63;0.40;;;13.60;89.40;;;;;;5054587;28;20025;-74
2020/12/23 02:19:59;;;;;;;1.13;0.43;;;13.50;89.70;;;;;;5035861;28;20040;-74
2020/12/23 02:22:30;;;;;;;0.80;0.50;;;13.50;89.60;;;;;;5054108;28;20436;-75
2020/12/23 02:24:56;;;;;;;;;;;13.50;89.80;;;;;;5037006;28;20127;-73
2020/12/23 02:27:23;;;;;;;0.47;0.40;;;13.50;90.00;;;;;;5054320;28;19953;-74
2020/12/23 02:29:54;;;;;;;1.00;0.57;;;13.40;90.00;;;;;;5035835;28;20033;-74
2020/12/23 02:32:20;;;;;;;2.00;0.57;;;13.40;90.10;;;;;;5036577;28;20029;-74
2020/12/23 02:34:47;;;;;;;1.15;0.60;;;13.40;90.20;;;;;;5035703;28;20191;-75
2020/12/23 02:37:13;;;;;;;3.47;0.63;;;13.40;90.50;;;;;;5036043;28;20031;-75
2020/12/23 02:39:42;;;;;;;1.85;0.50;;;13.30;90.60;;;;;;5053469;28;20116;-74
2020/12/23 02:42:09;;;;;;;0.95;0.60;;;13.30;90.70;;;;;;5054062;28;20026;-74
2020/12/23 02:44:35;;;;;;;1.42;0.60;;;13.30;91.00;;;;;;5035472;28;20028;-74
2020/12/23 02:47:03;;;;;;;1.90;0.80;;;13.20;91.00;;;;;;5036162;28;20029;-74
2020/12/23 02:49:29;;;;;;;1.63;0.50;;;13.20;91.10;;;;;;5053328;28;20029;-74
2020/12/23 02:51:56;;;;;;;1.35;0.80;;;13.30;91.20;;;;;;5054356;28;20496;-74
2020/12/23 02:54:22;;;;;;;2.50;0.80;;;13.30;91.30;;;;;;5036064;28;20425;-75
2020/12/23 02:56:48;;;;;;;1.65;0.60;;;13.20;91.40;;;;;;5035177;28;20032;-75
2020/12/23 02:59:14;;;;;;;1.13;0.60;;;13.20;91.50;;;;;;5053680;28;20094;-75
2020/12/23 03:01:40;;;;;;;1.17;0.65;;;13.10;91.70;;;;;;5053060;28;20029;-74
2020/12/23 03:04:06;;;;;;;1.95;0.70;;;13.10;91.80;;;;;;5035909;28;20039;-74
2020/12/23 03:06:33;;;;;;;1.45;0.50;;;13.10;91.90;;;;;;5052969;28;20068;-74
2020/12/23 03:08:59;;;;;;;0.80;0.60;;;13.10;91.90;;;;;;5053283;28;20474;-74
2020/12/23 03:11:25;;;;;;;1.38;0.73;;;13.10;92.00;;;;;;5035568;28;20029;-74
2020/12/23 03:13:50;;;;;;;4.35;0.90;;;13.00;92.00;;;;;;5052850;28;20029;-74
2020/12/23 03:16:16;;;;;;;1.13;0.65;;;13.00;92.10;;;;;;5052823;28;20029;-75
2020/12/23 03:18:43;;;;;;;2.47;0.70;;;13.00;92.20;;;;;;5034769;28;20465;-74
2020/12/23 03:21:10;;;;;;;1.50;0.65;;;13.00;91.90;;;;;;5053334;28;20059;-74
2020/12/23 03:23:36;;;;;;;3.13;0.68;;;13.00;91.70;;;;;;5052659;28;20025;-74
2020/12/23 03:26:03;;;;;;;1.00;0.60;;;13.00;91.70;;;;;;5053012;28;20158;-74
2020/12/23 03:28:29;;;;;;;0.80;0.70;;;13.10;91.70;;;;;;5035170;28;20033;-74
2020/12/23 03:30:55;;;;;;;1.15;0.60;;;13.00;91.70;;;;;;5034645;28;20036;-74
2020/12/23 03:33:21;;;;;;;2.70;0.68;;;13.00;91.70;;;;;;5053099;28;20021;-74
2020/12/23 03:35:46;;;;;;;0.88;0.57;;;13.10;91.60;;;;;;5034499;28;20032;-75
2020/12/23 03:38:12;;;;;;;0.93;0.60;;;13.00;91.50;;;;;;5053038;28;20370;-74
2020/12/23 03:40:38;;;;;;;1.00;0.50;;;13.10;91.50;;;;;;5034330;28;20140;-74
2020/12/23 03:43:04;;;;;;;2.25;0.68;;;13.10;91.40;;;;;;5052960;28;20027;-74
2020/12/23 03:45:30;;;;;;;1.13;0.80;;;13.20;91.30;;;;;;5035096;28;20363;-74
2020/12/23 03:47:55;;;;;;;1.20;0.68;;;13.10;91.10;;;;;;5052255;28;20087;-74
2020/12/23 03:50:21;;;;;;;4.13;1.13;;;13.20;91.10;;;;;;5052726;28;20053;-74
2020/12/23 03:52:47;;;;;;;1.13;0.60;;;13.20;91.10;;;;;;5034372;28;20469;-74
2020/12/23 03:55:12;;;;;;;0.98;0.45;;;13.20;91.10;;;;;;5034868;28;20116;-75
2020/12/23 03:57:39;;;;;;;1.10;0.70;;;13.20;91.10;;;;;;5051777;28;20367;-74
2020/12/23 04:00:06;;;;;;;1.35;0.90;;;13.20;91.20;;;;;;5034214;28;20436;-74
2020/12/23 04:02:32;;;;;;;0.90;0.63;;;13.20;91.20;;;;;;5052591;28;20077;-74
2020/12/23 04:04:58;;;;;;;0.47;0.45;;;13.20;91.40;;;;;;5052055;28;20033;-74
2020/12/23 04:07:24;;;;;;;0.73;0.50;;;13.30;91.60;;;;;;5052618;28;20474;-74
2020/12/23 04:09:49;;;;;;;2.10;0.55;;;13.30;91.70;;;;;;5051934;28;20029;-74
2020/12/23 04:12:15;;;;;;;2.17;0.57;;;13.30;91.80;;;;;;5052490;28;20025;-74
2020/12/23 04:14:41;;;;;;;2.13;0.77;;;13.30;91.80;;;;;;5051858;28;20152;-74
2020/12/23 04:17:07;;;;;;;1.17;0.50;;;13.30;91.90;;;;;;5034550;28;20048;-74
2020/12/23 04:19:33;;;;;;;1.13;0.60;;;13.30;91.80;;;;;;5034550;28;20378;-74
2020/12/23 04:21:59;;;;;;;0.93;0.50;;;13.30;91.80;;;;;;5051849;28;20108;-74
2020/12/23 04:24:25;;;;;;;0.75;0.55;;;13.40;91.60;;;;;;5052449;28;20025;-75
2020/12/23 04:26:50;;;;;;;1.48;0.80;;;13.40;91.40;;;;;;5052273;28;20374;-74
2020/12/23 04:29:16;;;;;;;1.75;0.57;;;13.40;91.40;;;;;;5034475;28;20048;-74
2020/12/23 04:31:42;;;;;;;0.98;0.50;;;13.40;91.40;;;;;;5051798;28;20086;-74
2020/12/23 04:34:08;;;;;;;0.50;0.40;;;13.40;91.50;;;;;;5052031;28;20022;-74
2020/12/23 04:36:33;;;;;;;0.50;0.40;;;13.40;91.50;;;;;;5052576;28;20029;-74
2020/12/23 04:38:59;;;;;;;1.95;0.65;;;13.30;91.50;;;;;;5033723;28;20531;-74
2020/12/23 04:41:29;;;;;;;1.73;0.60;;;13.30;91.50;;;;;;5034421;28;20047;-74
2020/12/23 04:43:55;;;;;;;1.23;0.70;;;13.30;91.50;;;;;;5051605;28;20104;-74
2020/12/23 04:46:28;;;;;;;1.00;0.60;;;13.30;91.40;;;;;;5034356;28;20548;-74
2020/12/23 04:48:57;;;;;;;0.88;0.57;;;13.40;91.20;;;;;;5051399;28;20025;-74
2020/12/23 04:51:30;;;;;;;2.30;0.70;;;13.30;91.20;;;;;;5034079;28;20049;-74
2020/12/23 04:53:56;;;;;;;1.80;0.73;;;13.40;91.10;;;;;;5051543;28;20478;-74
2020/12/23 04:56:25;;;;;;;3.65;0.70;;;13.40;91.10;;;;;;5052074;28;20351;-74
2020/12/23 04:58:52;;;;;;;0.47;0.47;;;13.40;91.10;;;;;;5051432;28;20033;-74
2020/12/23 05:01:17;;;;;;;0.60;0.45;;;13.40;91.10;;;;;;5034236;28;20021;-75
2020/12/23 05:03:44;;;;;;;0.47;0.40;;;13.30;91.10;;;;;;5033644;28;20163;-75
2020/12/23 05:06:10;;;;;;;0.70;0.50;;;13.40;91.00;;;;;;5034183;28;20025;-74
2020/12/23 05:08:36;;;;;;;1.13;0.70;;;13.40;91.10;;;;;;5034076;28;20377;-74
2020/12/23 05:11:11;;;;;;;2.55;0.63;;;13.30;91.20;;;;;;5051537;28;20103;-74
2020/12/23 05:13:39;;;;;;;1.90;0.90;;;13.30;91.40;;;;;;5037673;28;20025;-74
2020/12/23 05:16:06;;;;;;;0.80;0.68;;;13.30;91.40;;;;;;5037798;28;20059;-74
2020/12/23 05:18:36;;;;;;;1.63;1.05;;;13.20;91.50;;;;;;5055639;28;20082;-74
2020/12/23 05:21:14;;;;;;;4.03;1.20;;;13.20;91.60;;;;;;5054908;28;20037;-74
2020/12/23 05:23:46;;;;;;;1.20;0.90;;;13.20;91.60;;;;;;5055054;28;20024;-74
2020/12/23 05:26:13;;;;;;;2.03;1.00;;;13.20;91.60;;;;;;5055271;28;20061;-74
2020/12/23 05:28:41;;;;;;;1.23;0.80;;;13.10;91.60;;;;;;5036950;28;20028;-74
2020/12/23 05:31:11;;;;;;;0.95;0.70;;;13.10;91.60;;;;;;5055239;28;20053;-75
2020/12/23 05:33:39;;;;;;;0.90;0.70;;;13.10;91.60;;;;;;5037481;28;20485;-74
2020/12/23 05:36:10;;;;;;;1.20;0.80;;;13.10;91.60;;;;;;5055623;28;20028;-74
2020/12/23 05:38:37;;;;;;;1.98;0.70;;;13.10;91.60;;;;;;5037432;28;20428;-74
2020/12/23 05:41:08;;;;;;;1.23;0.85;;;13.10;91.60;;;;;;5036582;28;20394;-74
2020/12/23 05:43:34;;;;;;;2.58;0.80;;;13.00;91.70;;;;;;5037438;28;20025;-74
2020/12/23 05:46:03;;;;;;;1.48;0.73;;;13.00;91.70;;;;;;5054534;28;20031;-74
2020/12/23 05:48:32;;;;;;;3.17;1.13;;;13.00;91.70;;;;;;5037168;28;20029;-74
2020/12/23 05:50:59;;;;;;;1.27;1.10;;;13.00;91.80;;;;;;5054338;28;20044;-74
2020/12/23 05:53:30;;;;;;;1.42;0.93;;;13.00;91.80;;;;;;5037115;28;20588;-74
2020/12/23 05:55:56;;;;;;;1.42;1.02;;;13.00;91.80;;;;;;5054449;28;20447;-74
2020/12/23 05:58:28;;;;;;;1.40;0.95;;;13.00;91.80;;;;;;5037025;28;20025;-74
2020/12/23 06:00:56;;;;;;;1.48;1.02;;;13.00;91.80;;;;;;5036299;28;20156;-74
2020/12/23 06:03:42;;;;;;;2.45;1.35;;;12.90;91.70;;;;;;5054799;28;20032;-74
2020/12/23 06:06:09;;;;;;;2.40;1.08;;;12.90;91.70;;;;;;5054936;28;20032;-74
2020/12/23 06:08:36;;;;;;;1.50;0.90;;;12.90;91.70;;;;;;5036464;28;20089;-74
2020/12/23 06:11:29;;;;;;;2.47;1.05;;;12.90;91.70;;;;;;5053802;28;20440;-74
2020/12/23 06:13:54;;;;;;;;;;;12.90;91.80;;;;;;5026055;28;20037;-74
2020/12/23 06:16:28;;;;;;;1.85;0.77;;;12.90;91.80;;;;;;5036757;28;20018;-74
2020/12/23 06:18:56;;;;;;;1.38;1.00;;;12.90;91.80;;;;;;5053937;28;20074;-74
2020/12/23 06:21:26;;;;;;;1.77;1.05;;;12.90;91.80;;;;;;5054732;28;20032;-74
2020/12/23 06:24:05;;;;;;;1.23;0.95;;;12.80;91.90;;;;;;5035611;28;20167;-74
2020/12/23 06:26:36;;;;;;;0.88;0.70;;;12.80;92.00;;;;;;5054523;28;20033;-75
2020/12/23 06:29:10;;;;;;;1.15;0.73;;;12.80;91.50;;;;;;5035999;28;20731;-74
2020/12/23 06:31:45;;;;;;;1.10;0.95;;;12.80;91.60;;;;;;5054114;28;20051;-74
2020/12/23 06:34:22;;;;;;;1.38;0.80;;;12.80;91.60;;;;;;5036613;28;20040;-74
2020/12/23 06:36:49;;;;;;;1.08;0.85;;;12.80;91.30;;;;;;5053546;28;20032;-74
2020/12/23 06:39:27;;;;;;;3.38;1.08;;;12.90;91.30;;;;;;5036077;28;20032;-74
2020/12/23 06:41:59;;;;;;;1.60;1.00;;;12.90;91.10;;;;;;5035741;28;20029;-74
2020/12/23 06:44:45;;;;;;;1.63;1.00;;;13.00;91.10;;;;;;5054188;28;20025;-74
2020/12/23 06:47:20;;;;;;;3.47;0.90;;;12.90;91.00;;;;;;5035733;28;20033;-74
2020/12/23 06:50:00;;;;;;;2.75;1.00;;;12.90;91.00;;;;;;5052770;28;20425;-74
2020/12/23 06:52:27;;;;;;;1.60;1.08;;;12.90;91.10;;;;;;5053934;28;20024;-74
2020/12/23 06:54:54;;;;;;;3.40;1.30;;;12.90;91.20;;;;;;5035436;28;20029;-74
2020/12/23 06:57:49;;;;;;;1.80;1.13;;;12.90;91.40;;;;;;5054272;28;20110;-74
2020/12/23 07:00:23;;;;;;;1.60;1.10;;;12.90;91.20;;;;;;5019414;28;20130;-74
2020/12/23 07:02:50;;;;;;;2.22;1.40;;;12.80;91.30;;;;;;5052996;28;20223;-74
2020/12/23 07:05:22;;;;;;;2.58;1.45;;;12.90;91.40;;;;;;5035739;28;20040;-74
2020/12/23 07:07:56;;;;;;;3.80;1.52;;;12.80;91.40;;;;;;5035231;28;20028;-74
2020/12/23 07:10:30;;;;;;;4.70;1.13;;;12.80;91.50;;;;;;5053612;28;20037;-74
2020/12/23 07:13:04;;;;;;;1.50;1.13;;;12.90;91.20;;;;;;5035118;28;20398;-74
2020/12/23 07:15:42;;;;;;;3.85;1.40;;;12.80;91.50;;;;;;5053462;28;20029;-75
2020/12/23 07:18:13;;;;;;;2.00;1.35;;;12.80;91.20;;;;;;5034977;28;20054;-74
2020/12/23 07:20:44;;;;;;;2.03;1.15;;;12.80;91.30;;;;;;5053364;28;20033;-74
2020/12/23 07:23:12;;;;;;;2.42;1.40;;;12.80;91.30;;;;;;5052991;28;20025;-74
2020/12/23 07:25:45;;;;;;;3.58;1.50;;;12.80;91.30;;;;;;5035285;28;20029;-74
2020/12/23 07:28:11;;;;;;;3.67;1.98;;;12.70;91.30;;;;;;5035578;28;20037;-75
2020/12/23 07:30:39;;;;;;;3.42;1.70;;;12.80;91.00;;;;;;5052836;28;20029;-75
2020/12/23 07:33:07;;;;;;;2.70;1.33;;;12.80;90.80;;;;;;5052509;28;20025;-74
2020/12/23 07:35:33;;;;;;;3.67;1.50;;;12.80;90.60;;;;;;5034432;28;20056;-74
2020/12/23 07:38:01;;;;;;;2.20;1.70;;;12.80;90.40;;;;;;5034542;28;20462;-74
2020/12/23 07:40:28;;;;;;;2.80;1.35;;;12.80;90.30;;;;;;5035018;28;20155;-75
2020/12/23 07:42:56;;;;;;;1.48;1.00;;;12.90;89.80;;;;;;5052644;28;20107;-74
2020/12/23 07:45:22;;;;;;;2.10;1.30;;;12.80;88.80;;;;;;5053018;28;20020;-75
2020/12/23 07:47:58;;;;;;;3.95;1.80;;;12.80;88.50;;;;;;5034460;28;20581;-74
2020/12/23 07:50:25;;;;;;;2.42;1.30;;;12.90;88.40;;;;;;5034808;28;20095;-75
2020/12/23 07:52:51;;;;;;;1.55;0.90;;;12.90;88.00;;;;;;5052126;28;20036;-74
2020/12/23 07:55:19;;;;;;;1.48;0.82;;;12.90;87.70;;;;;;5034783;28;20029;-74
2020/12/23 07:57:47;;;;;;;3.92;0.80;;;12.90;87.60;;;;;;5034760;28;20025;-75
2020/12/23 08:00:13;;;;;;;1.17;0.80;;;12.90;87.00;;;;;;5052703;28;20035;-74
2020/12/23 08:02:40;;;;;;;1.52;0.80;;;12.90;87.00;;;;;;5052598;28;20029;-74
2020/12/23 08:05:08;;;;;;;1.38;0.70;;;12.90;87.20;;;;;;5034156;28;20374;-74
2020/12/23 08:07:38;;;;;;;2.22;0.70;;;13.00;86.50;;;;;;5052564;28;20033;-75
2020/12/23 08:10:08;;;;;;;1.13;0.70;;;12.90;86.50;;;;;;5034091;28;20029;-74
2020/12/23 08:12:35;;;;;;;1.23;0.60;;;13.00;86.30;;;;;;5052249;28;20032;-74
2020/12/23 08:15:00;;;;;;;2.35;0.75;;;13.00;86.10;;;;;;5051651;28;20385;-75
2020/12/23 08:17:26;;;;;;;0.70;0.60;;;13.00;85.70;;;;;;5034589;28;20029;-74
2020/12/23 08:20:13;;;;;;;1.20;0.90;;;13.10;85.80;;;;;;5033883;28;20135;-74
2020/12/23 08:22:40;;;;;;;1.27;0.60;;;13.10;85.10;;;;;;5052476;28;20054;-74
2020/12/23 08:25:08;;;;;;;1.88;0.50;;;13.10;84.70;;;;;;5033797;28;20116;-74
2020/12/23 08:27:35;;;;;;;1.00;0.60;;;13.20;85.00;;;;;;5034413;28;20029;-75
2020/12/23 08:30:04;;;;;;;1.45;0.70;;;13.20;84.60;;;;;;5033920;28;20055;-74
2020/12/23 08:32:42;;;;;;;0.90;0.57;;;13.20;84.60;;;;;;5052162;28;20029;-75
2020/12/23 08:35:09;;;;;;;0.60;0.50;;;13.20;84.50;;;;;;5033519;28;20036;-74
2020/12/23 08:37:35;;;;;;;0.60;0.55;;;13.20;84.70;;;;;;5052305;28;20442;-74
2020/12/23 08:40:02;;;;;;;1.75;0.63;;;13.20;84.40;;;;;;5033665;28;20033;-74
2020/12/23 08:42:28;;;;;;;1.30;0.82;;;13.20;84.70;;;;;;5034324;28;20102;-75
2020/12/23 08:44:55;;;;;;;3.70;0.90;;;13.20;84.70;;;;;;5033700;28;20430;-74
2020/12/23 08:47:24;;;;;;;29.42;15.02;;;13.30;84.20;;;;;;5038336;28;20021;-75
2020/12/23 08:49:52;;;;;;;12.13;3.92;;;13.30;84.10;;;;;;5037906;28;20116;-75
2020/12/23 08:52:19;;;;;;;3.20;1.50;;;13.30;83.70;;;;;;5036288;28;20478;-75
2020/12/23 08:54:45;;;;;;;2.38;1.10;;;13.30;84.00;;;;;;5018530;28;20109;-75
2020/12/23 08:57:34;;;;;;;1.27;0.50;;;13.40;84.00;;;;;;5017563;28;20034;-75
2020/12/23 09:00:00;;;;;;;0.77;0.70;;;13.40;83.60;;;;;;5017013;28;20045;-75
2020/12/23 09:02:35;;;;;;;2.78;0.75;;;13.40;83.50;;;;;;5035994;28;20063;-75
2020/12/23 09:05:21;;;;;;;2.53;0.90;;;13.40;83.10;;;;;;5035385;28;20025;-75
2020/12/23 09:07:47;;;;;;;2.08;0.70;;;13.40;83.00;;;;;;5018320;28;20087;-75
2020/12/23 09:10:12;;;;;;;1.30;0.65;;;13.40;83.40;;;;;;5017503;28;20029;-75
2020/12/23 09:12:38;;;;;;;3.00;0.80;;;13.50;83.50;;;;;;5035941;28;20036;-75
2020/12/23 09:15:14;;;;;;;1.50;0.90;;;13.50;83.40;;;;;;5035507;28;20352;-75
2020/12/23 09:17:40;;;;;;;3.85;1.33;;;13.50;83.40;;;;;;5018007;28;20032;-75
2020/12/23 09:20:06;;;;;;;1.77;0.73;;;13.50;83.70;;;;;;5035037;28;20033;-74
2020/12/23 09:22:40;;;;;;;0.95;0.70;;;13.50;83.30;;;;;;5018085;28;20129;-75
2020/12/23 09:25:26;;;;;;;1.95;1.00;;;13.60;83.00;;;;;;5017194;28;20036;-74
2020/12/23 09:28:05;;;;;;;2.35;0.90;;;13.60;82.90;;;;;;5017506;28;20033;-75
2020/12/23 09:30:36;;;;;;;2.85;1.27;;;13.60;83.00;;;;;;5035649;28;20029;-75
2020/12/23 09:33:03;;;;;;;2.10;0.80;;;13.60;83.10;;;;;;5017129;28;20458;-75
2020/12/23 09:35:29;;;;;;;3.42;0.80;;;13.60;82.90;;;;;;5017844;28;20033;-75
2020/12/23 09:38:02;;;;;;;2.75;1.00;;;13.60;82.90;;;;;;5016955;28;20025;-74
2020/12/23 09:40:28;;;;;;;2.20;0.70;;;13.70;83.00;;;;;;5035316;28;20402;-74
2020/12/23 09:42:54;;;;;;;25.63;11.85;;;13.70;82.60;;;;;;5016798;28;20025;-74
2020/12/23 09:45:19;;;;;;;20.42;10.85;;;13.70;82.20;;;;;;5017412;28;20116;-74
2020/12/23 09:47:45;;;;;;;4.50;2.35;;;13.80;82.10;;;;;;5035179;28;20026;-74
2020/12/23 09:50:11;;;;;;;4.57;1.60;;;13.80;82.20;;;;;;5037032;28;20463;-74
2020/12/23 09:52:37;;;;;;;2.40;1.38;;;13.80;82.20;;;;;;5037176;28;20043;-74
2020/12/23 09:55:04;;;;;;;6.70;1.27;;;13.80;82.00;;;;;;5054212;28;20025;-74
2020/12/23 09:57:29;;;;;;;2.22;1.40;;;13.80;81.80;;;;;;5036287;28;20459;-74
2020/12/23 09:59:55;;;;;;;5.68;1.20;;;13.90;82.00;;;;;;5036334;28;20036;-74
2020/12/23 10:02:21;;;;;;;3.75;1.30;;;13.90;81.30;;;;;;5054859;28;20474;-74
2020/12/23 10:04:46;;;;;;;1.33;0.70;;;14.00;81.20;;;;;;5054800;28;20433;-74
2020/12/23 10:07:12;;;;;;;3.72;1.00;;;13.90;80.60;;;;;;5054140;28;20049;-74
2020/12/23 10:09:38;;;;;;;2.85;0.90;;;14.00;80.40;;;;;;5054719;28;20029;-74
2020/12/23 10:12:04;;;;;;;3.05;0.88;;;14.00;80.50;;;;;;5036191;28;20029;-74
2020/12/23 10:14:30;;;;;;;1.48;0.70;;;14.10;80.30;;;;;;5054920;28;20032;-74
2020/12/23 10:16:56;;;;;;;1.08;0.63;;;14.10;80.00;;;;;;5036476;28;20017;-74
2020/12/23 10:19:21;;;;;;;1.50;0.43;;;14.10;79.90;;;;;;5036613;28;20467;-74
2020/12/23 10:21:47;;;;;;;1.52;0.60;;;14.10;79.80;;;;;;5036684;28;20029;-74
2020/12/23 10:24:13;;;;;;;2.30;0.60;;;14.20;80.00;;;;;;5053581;28;20028;-74
2020/12/23 10:26:38;;;;;;;1.92;0.68;;;14.10;80.10;;;;;;5054353;28;20036;-74
2020/12/23 10:29:05;;;;;;;2.63;0.60;;;14.10;80.50;;;;;;5035642;28;20474;-74
2020/12/23 10:31:32;;;;;;;3.40;0.80;;;14.10;81.00;;;;;;5036421;28;20029;-74
2020/12/23 10:33:58;;;;;;;1.00;0.70;;;14.10;81.20;;;;;;5053432;28;20023;-74
2020/12/23 10:36:23;;;;;;;1.23;0.70;;;14.20;81.20;;;;;;5053993;28;20104;-74
2020/12/23 10:38:50;;;;;;;1.05;0.70;;;14.20;81.10;;;;;;5036349;28;20116;-74
2020/12/23 10:41:18;;;;;;;3.22;1.55;;;14.20;81.50;;;;;;5035483;28;20234;-74
2020/12/23 10:43:43;;;;;;;1.25;0.90;;;14.20;81.20;;;;;;5036186;28;20028;-74
2020/12/23 10:46:09;;;;;;;1.25;0.70;;;14.20;80.20;;;;;;5053231;28;20033;-74
2020/12/23 10:48:35;;;;;;;1.13;0.70;;;14.30;79.80;;;;;;5036134;28;20079;-74
2020/12/23 10:51:03;;;;;;;1.23;0.60;;;14.30;79.30;;;;;;5053005;28;20045;-74
2020/12/23 10:53:30;;;;;;;1.13;0.73;;;14.40;77.90;;;;;;5035958;28;20474;-74
2020/12/23 10:55:55;;;;;;;1.45;0.80;;;14.50;78.70;;;;;;5035818;28;20367;-74
2020/12/23 10:58:21;;;;;;;0.93;0.60;;;14.60;78.10;;;;;;5035298;28;20064;-74
2020/12/23 11:00:47;;;;;;;0.80;0.60;;;14.60;77.60;;;;;;5053607;28;20037;-75
2020/12/23 11:03:12;;;;;;;0.80;0.52;;;14.70;77.90;;;;;;5035248;28;20025;-75
2020/12/23 11:05:38;;;;;;;1.70;0.43;;;14.70;77.90;;;;;;5053669;28;20381;-75
2020/12/23 11:08:04;;;;;;;1.10;0.63;;;14.70;77.20;;;;;;5052939;28;20104;-74
2020/12/23 11:10:29;;;;;;;1.85;0.75;;;14.80;77.60;;;;;;5034855;28;20033;-75
2020/12/23 11:12:55;;;;;;;3.05;0.60;;;14.80;76.90;;;;;;5053586;28;20466;-75
2020/12/23 11:15:21;;;;;;;0.68;0.50;;;14.80;76.90;;;;;;5035023;28;20466;-75
2020/12/23 11:17:46;;;;;;;0.73;0.40;;;14.80;76.90;;;;;;5035558;28;20032;-75
2020/12/23 11:20:12;;;;;;;1.25;0.50;;;14.80;77.60;;;;;;5034511;28;20039;-74
2020/12/23 11:22:38;;;;;;;1.35;0.57;;;14.80;76.90;;;;;;5035207;28;20120;-75
2020/12/23 11:25:05;;;;;;;1.38;0.88;;;14.80;76.20;;;;;;5034713;28;20061;-74
2020/12/23 11:27:31;;;;;;;0.40;0.40;;;14.80;76.30;;;;;;5053258;28;20040;-75
2020/12/23 11:29:57;;;;;;;2.45;0.35;;;14.90;76.20;;;;;;5035296;28;20041;-75
2020/12/23 11:32:23;;;;;;;1.00;0.50;;;14.90;75.60;;;;;;5052598;28;20051;-74
2020/12/23 11:34:48;;;;;;;0.52;0.30;;;14.90;75.80;;;;;;5052835;28;20109;-75
2020/12/23 11:37:14;;;;;;;2.22;0.50;;;14.90;76.30;;;;;;5052548;28;20029;-74
2020/12/23 11:39:40;;;;;;;0.75;0.60;;;14.90;75.80;;;;;;5052891;28;20095;-75
2020/12/23 11:42:05;;;;;;;0.60;0.30;;;14.90;76.00;;;;;;5034599;28;20063;-74
2020/12/23 11:44:31;;;;;;;0.57;0.40;;;14.90;76.30;;;;;;5053233;28;20035;-74
2020/12/23 11:46:57;;;;;;;2.25;0.47;;;14.90;76.20;;;;;;5035131;28;20029;-75
2020/12/23 11:49:22;;;;;;;1.02;0.82;;;14.90;76.40;;;;;;5052265;28;20036;-74
2020/12/23 11:51:52;;;;;;;0.40;0.30;;;14.90;76.50;;;;;;5034767;28;20102;-75
2020/12/23 11:54:18;;;;;;;0.95;0.30;;;14.90;77.00;;;;;;5034356;28;20473;-74
2020/12/23 11:56:46;;;;;;;1.67;0.43;;;14.90;76.50;;;;;;5034725;28;20104;-75
2020/12/23 11:59:12;;;;;;;0.30;0.30;;;14.80;76.90;;;;;;5052039;28;20029;-74
2020/12/23 12:01:38;;;;;;;0.70;0.30;;;14.90;77.20;;;;;;5034844;28;20047;-74
2020/12/23 12:04:03;;;;;;;2.47;0.30;;;14.90;77.10;;;;;;5034292;28;20454;-74
2020/12/23 12:06:29;;;;;;;0.40;0.28;;;14.90;77.60;;;;;;5035052;28;20032;-75
2020/12/23 12:08:55;;;;;;;0.82;0.30;;;14.90;77.90;;;;;;5034675;28;20067;-74
2020/12/23 12:11:20;;;;;;;1.08;0.50;;;14.90;78.00;;;;;;5051991;28;20569;-75
2020/12/23 12:13:46;;;;;;;1.65;0.60;;;14.90;78.00;;;;;;5034655;28;20032;-75
2020/12/23 12:16:13;;;;;;;3.08;0.60;;;15.00;77.70;;;;;;5034101;28;20059;-75
2020/12/23 12:18:40;;;;;;;1.35;0.50;;;14.90;77.80;;;;;;5034845;28;20025;-75
2020/12/23 12:21:05;;;;;;;1.40;0.55;;;14.90;77.70;;;;;;5033584;28;20033;-75
2020/12/23 12:23:31;;;;;;;2.28;0.95;;;14.90;78.50;;;;;;5034741;28;20028;-75
2020/12/23 12:25:56;;;;;;;1.33;0.60;;;14.90;79.00;;;;;;5052775;28;20469;-75
2020/12/23 12:28:22;;;;;;;1.23;0.60;;;14.80;78.90;;;;;;5033963;28;20202;-75
2020/12/23 12:30:48;;;;;;;2.60;0.70;;;14.80;78.80;;;;;;5052397;28;20149;-73
2020/12/23 12:33:15;;;;;;;2.65;1.00;;;14.80;78.50;;;;;;5033958;28;20032;-73
2020/12/23 12:35:42;;;;;;;0.93;0.65;;;14.80;79.00;;;;;;5051987;28;20374;-73
2020/12/23 12:38:09;;;;;;;0.73;0.60;;;14.80;79.00;;;;;;5033518;28;20029;-75
2020/12/23 12:40:35;;;;;;;0.57;0.50;;;14.80;79.10;;;;;;5052304;28;20116;-76
2020/12/23 12:43:05;;;;;;;2.55;0.80;;;14.80;78.70;;;;;;5034392;28;20112;-75
2020/12/23 12:45:31;;;;;;;1.02;0.80;;;14.80;78.40;;;;;;5034443;28;20383;-75
2020/12/23 12:47:57;;;;;;;0.70;0.70;;;14.80;78.50;;;;;;5034472;28;20025;-75
2020/12/23 12:50:23;;;;;;;0.98;0.50;;;14.80;78.30;;;;;;5051320;28;20083;-75